METAR metoinfo z LKNA (Náměšť nad Oslavou

Orig link LKNA zde

 

LKNA 131900Z 14006KT 0600 R13/P2000 FZFG VV002 M02/M02 Q0989 NOSIG RMK RED RED

 

 

Permanent link to this article: http://www.airfly.cz/2018/06/26/metar-metoinfo-z-lkna-namest-nad-oslavou/

Napsat komentář